sensor_id;sensor_type;location;lat;lon;timestamp;temperature;humidity
64143;DHT22;50437;51.970;5.904;2023-04-30T00:00:56;8.50;99.90
64143;DHT22;50437;51.970;5.904;2023-04-30T00:03:22;8.40;99.90
64143;DHT22;50437;51.970;5.904;2023-04-30T00:05:51;8.40;99.90
64143;DHT22;50437;51.970;5.904;2023-04-30T00:08:18;8.40;99.90
64143;DHT22;50437;51.970;5.904;2023-04-30T00:10:44;8.40;99.90
64143;DHT22;50437;51.970;5.904;2023-04-30T00:13:10;8.40;99.90
64143;DHT22;50437;51.970;5.904;2023-04-30T00:15:38;8.40;99.90
64143;DHT22;50437;51.970;5.904;2023-04-30T00:18:08;8.40;99.90
64143;DHT22;50437;51.970;5.904;2023-04-30T00:20:34;8.30;99.90
64143;DHT22;50437;51.970;5.904;2023-04-30T00:23:03;8.30;99.90
64143;DHT22;50437;51.970;5.904;2023-04-30T00:25:29;8.20;99.90
64143;DHT22;50437;51.970;5.904;2023-04-30T00:27:55;8.20;99.90
64143;DHT22;50437;51.970;5.904;2023-04-30T00:30:21;8.20;99.90
64143;DHT22;50437;51.970;5.904;2023-04-30T00:32:52;8.10;99.90
64143;DHT22;50437;51.970;5.904;2023-04-30T00:35:18;7.90;99.90
64143;DHT22;50437;51.970;5.904;2023-04-30T00:37:44;8.10;99.90
64143;DHT22;50437;51.970;5.904;2023-04-30T00:40:10;8.00;99.90
64143;DHT22;50437;51.970;5.904;2023-04-30T00:42:50;8.00;99.90
64143;DHT22;50437;51.970;5.904;2023-04-30T00:45:24;8.00;99.90
64143;DHT22;50437;51.970;5.904;2023-04-30T00:47:50;8.00;99.90
64143;DHT22;50437;51.970;5.904;2023-04-30T00:50:21;8.00;99.90
64143;DHT22;50437;51.970;5.904;2023-04-30T00:52:47;7.90;99.90
64143;DHT22;50437;51.970;5.904;2023-04-30T00:55:13;7.90;99.90
64143;DHT22;50437;51.970;5.904;2023-04-30T00:57:40;7.90;99.90
64143;DHT22;50437;51.970;5.904;2023-04-30T01:00:06;7.90;99.90
64143;DHT22;50437;51.970;5.904;2023-04-30T01:02:39;7.90;99.90
64143;DHT22;50437;51.970;5.904;2023-04-30T01:05:06;7.90;99.90
64143;DHT22;50437;51.970;5.904;2023-04-30T01:07:32;7.80;99.90
64143;DHT22;50437;51.970;5.904;2023-04-30T01:10:02;7.90;99.90
64143;DHT22;50437;51.970;5.904;2023-04-30T01:18:02;7.80;99.90
64143;DHT22;50437;51.970;5.904;2023-04-30T01:20:28;7.80;99.90
64143;DHT22;50437;51.970;5.904;2023-04-30T01:23:02;7.80;99.90
64143;DHT22;50437;51.970;5.904;2023-04-30T01:25:34;7.70;99.90
64143;DHT22;50437;51.970;5.904;2023-04-30T01:28:11;7.70;99.90
64143;DHT22;50437;51.970;5.904;2023-04-30T01:30:38;7.70;99.90
64143;DHT22;50437;51.970;5.904;2023-04-30T01:33:05;7.60;99.90
64143;DHT22;50437;51.970;5.904;2023-04-30T01:35:43;7.70;99.90
64143;DHT22;50437;51.970;5.904;2023-04-30T01:40:47;7.70;99.90
64143;DHT22;50437;51.970;5.904;2023-04-30T01:43:19;7.60;99.90
64143;DHT22;50437;51.970;5.904;2023-04-30T01:45:54;7.60;99.90
64143;DHT22;50437;51.970;5.904;2023-04-30T01:50:57;7.60;99.90
64143;DHT22;50437;51.970;5.904;2023-04-30T01:53:30;7.60;99.90
64143;DHT22;50437;51.970;5.904;2023-04-30T01:55:58;7.50;99.90
64143;DHT22;50437;51.970;5.904;2023-04-30T01:58:25;7.40;99.90
64143;DHT22;50437;51.970;5.904;2023-04-30T02:00:52;7.30;99.90
64143;DHT22;50437;51.970;5.904;2023-04-30T02:03:19;7.30;99.90
64143;DHT22;50437;51.970;5.904;2023-04-30T02:05:45;7.30;99.90
64143;DHT22;50437;51.970;5.904;2023-04-30T02:08:11;7.40;99.90
64143;DHT22;50437;51.970;5.904;2023-04-30T02:10:37;7.40;99.90
64143;DHT22;50437;51.970;5.904;2023-04-30T02:13:03;7.30;99.90
64143;DHT22;50437;51.970;5.904;2023-04-30T02:15:29;7.20;99.90
64143;DHT22;50437;51.970;5.904;2023-04-30T02:17:56;7.20;99.90
64143;DHT22;50437;51.970;5.904;2023-04-30T02:20:22;7.20;99.90
64143;DHT22;50437;51.970;5.904;2023-04-30T02:22:48;7.20;99.90
64143;DHT22;50437;51.970;5.904;2023-04-30T02:25:14;7.20;99.90
64143;DHT22;50437;51.970;5.904;2023-04-30T02:27:40;7.10;99.90
64143;DHT22;50437;51.970;5.904;2023-04-30T02:30:06;7.10;99.90
64143;DHT22;50437;51.970;5.904;2023-04-30T02:32:32;7.10;99.90
64143;DHT22;50437;51.970;5.904;2023-04-30T02:35:01;7.10;99.90
64143;DHT22;50437;51.970;5.904;2023-04-30T02:37:27;7.10;99.90
64143;DHT22;50437;51.970;5.904;2023-04-30T02:39:53;7.10;99.90
64143;DHT22;50437;51.970;5.904;2023-04-30T02:42:19;7.10;99.90
64143;DHT22;50437;51.970;5.904;2023-04-30T02:44:48;7.10;99.90
64143;DHT22;50437;51.970;5.904;2023-04-30T02:47:14;7.20;99.90
64143;DHT22;50437;51.970;5.904;2023-04-30T02:49:40;7.20;99.90
64143;DHT22;50437;51.970;5.904;2023-04-30T02:52:06;7.10;99.90
64143;DHT22;50437;51.970;5.904;2023-04-30T02:54:34;7.10;99.90
64143;DHT22;50437;51.970;5.904;2023-04-30T02:57:03;7.10;99.90
64143;DHT22;50437;51.970;5.904;2023-04-30T02:59:29;7.00;99.90
64143;DHT22;50437;51.970;5.904;2023-04-30T03:01:55;7.00;99.90
64143;DHT22;50437;51.970;5.904;2023-04-30T03:04:24;7.00;99.90
64143;DHT22;50437;51.970;5.904;2023-04-30T03:06:50;6.90;99.90
64143;DHT22;50437;51.970;5.904;2023-04-30T03:09:18;6.90;99.90
64143;DHT22;50437;51.970;5.904;2023-04-30T03:11:47;6.90;99.90
64143;DHT22;50437;51.970;5.904;2023-04-30T03:14:13;6.90;99.90
64143;DHT22;50437;51.970;5.904;2023-04-30T03:16:40;7.00;99.90
64143;DHT22;50437;51.970;5.904;2023-04-30T03:19:06;6.90;99.90
64143;DHT22;50437;51.970;5.904;2023-04-30T03:21:32;6.80;99.90
64143;DHT22;50437;51.970;5.904;2023-04-30T03:23:58;6.80;99.90
64143;DHT22;50437;51.970;5.904;2023-04-30T03:26:24;6.80;99.90
64143;DHT22;50437;51.970;5.904;2023-04-30T03:28:50;6.80;99.90
64143;DHT22;50437;51.970;5.904;2023-04-30T03:31:16;6.80;99.90
64143;DHT22;50437;51.970;5.904;2023-04-30T03:33:42;6.80;99.90
64143;DHT22;50437;51.970;5.904;2023-04-30T03:36:08;6.80;99.90
64143;DHT22;50437;51.970;5.904;2023-04-30T03:38:34;6.80;99.90
64143;DHT22;50437;51.970;5.904;2023-04-30T03:41:01;6.70;99.90
64143;DHT22;50437;51.970;5.904;2023-04-30T03:43:27;6.70;99.90
64143;DHT22;50437;51.970;5.904;2023-04-30T03:45:54;6.70;99.90
64143;DHT22;50437;51.970;5.904;2023-04-30T03:48:20;6.70;99.90
64143;DHT22;50437;51.970;5.904;2023-04-30T03:50:46;6.70;99.90
64143;DHT22;50437;51.970;5.904;2023-04-30T03:53:12;6.70;99.90
64143;DHT22;50437;51.970;5.904;2023-04-30T03:55:38;6.70;99.90
64143;DHT22;50437;51.970;5.904;2023-04-30T03:58:04;6.60;99.90
64143;DHT22;50437;51.970;5.904;2023-04-30T04:00:30;6.60;99.90
64143;DHT22;50437;51.970;5.904;2023-04-30T04:02:56;6.60;99.90
64143;DHT22;50437;51.970;5.904;2023-04-30T04:05:23;6.60;99.90
64143;DHT22;50437;51.970;5.904;2023-04-30T04:07:49;6.60;99.90
64143;DHT22;50437;51.970;5.904;2023-04-30T04:10:15;6.60;99.90
64143;DHT22;50437;51.970;5.904;2023-04-30T04:12:41;6.60;99.90
64143;DHT22;50437;51.970;5.904;2023-04-30T04:15:07;6.60;99.90
64143;DHT22;50437;51.970;5.904;2023-04-30T04:17:33;6.60;99.90
64143;DHT22;50437;51.970;5.904;2023-04-30T04:19:59;6.60;99.90
64143;DHT22;50437;51.970;5.904;2023-04-30T04:22:25;6.60;99.90
64143;DHT22;50437;51.970;5.904;2023-04-30T04:24:52;6.50;99.90
64143;DHT22;50437;51.970;5.904;2023-04-30T04:27:21;6.60;99.90
64143;DHT22;50437;51.970;5.904;2023-04-30T04:29:47;6.60;99.90
64143;DHT22;50437;51.970;5.904;2023-04-30T04:32:16;6.60;99.90
64143;DHT22;50437;51.970;5.904;2023-04-30T04:34:42;6.70;99.90
64143;DHT22;50437;51.970;5.904;2023-04-30T04:37:11;6.70;99.90
64143;DHT22;50437;51.970;5.904;2023-04-30T04:39:37;6.70;99.90
64143;DHT22;50437;51.970;5.904;2023-04-30T04:42:03;6.70;99.90
64143;DHT22;50437;51.970;5.904;2023-04-30T04:44:30;6.70;99.90
64143;DHT22;50437;51.970;5.904;2023-04-30T04:46:57;6.80;99.90
64143;DHT22;50437;51.970;5.904;2023-04-30T04:49:26;6.80;99.90
64143;DHT22;50437;51.970;5.904;2023-04-30T04:51:52;6.80;99.90
64143;DHT22;50437;51.970;5.904;2023-04-30T04:54:18;6.80;99.90
64143;DHT22;50437;51.970;5.904;2023-04-30T04:56:47;6.80;99.90
64143;DHT22;50437;51.970;5.904;2023-04-30T04:59:15;6.90;99.90
64143;DHT22;50437;51.970;5.904;2023-04-30T05:01:42;6.80;99.90
64143;DHT22;50437;51.970;5.904;2023-04-30T05:04:09;6.90;99.90
64143;DHT22;50437;51.970;5.904;2023-04-30T05:06:35;6.90;99.90
64143;DHT22;50437;51.970;5.904;2023-04-30T05:09:01;6.90;99.90
64143;DHT22;50437;51.970;5.904;2023-04-30T05:11:29;7.10;99.90
64143;DHT22;50437;51.970;5.904;2023-04-30T05:13:55;7.00;99.90
64143;DHT22;50437;51.970;5.904;2023-04-30T05:16:22;7.00;99.90
64143;DHT22;50437;51.970;5.904;2023-04-30T05:18:48;7.00;99.90
64143;DHT22;50437;51.970;5.904;2023-04-30T05:21:14;7.00;99.90
64143;DHT22;50437;51.970;5.904;2023-04-30T05:23:40;7.10;99.90
64143;DHT22;50437;51.970;5.904;2023-04-30T05:26:06;7.20;99.90
64143;DHT22;50437;51.970;5.904;2023-04-30T05:28:32;7.20;99.90
64143;DHT22;50437;51.970;5.904;2023-04-30T05:30:58;7.20;99.90
64143;DHT22;50437;51.970;5.904;2023-04-30T05:33:25;7.20;99.90
64143;DHT22;50437;51.970;5.904;2023-04-30T05:35:50;7.30;99.90
64143;DHT22;50437;51.970;5.904;2023-04-30T05:38:16;7.30;99.90
64143;DHT22;50437;51.970;5.904;2023-04-30T05:40:42;7.30;99.90
64143;DHT22;50437;51.970;5.904;2023-04-30T05:43:08;7.30;99.90
64143;DHT22;50437;51.970;5.904;2023-04-30T05:45:34;7.40;99.90
64143;DHT22;50437;51.970;5.904;2023-04-30T05:48:00;7.40;99.90
64143;DHT22;50437;51.970;5.904;2023-04-30T05:50:26;7.50;99.90
64143;DHT22;50437;51.970;5.904;2023-04-30T05:52:52;7.50;99.90
64143;DHT22;50437;51.970;5.904;2023-04-30T05:55:18;7.60;99.90
64143;DHT22;50437;51.970;5.904;2023-04-30T05:57:44;7.60;99.90
64143;DHT22;50437;51.970;5.904;2023-04-30T06:00:10;7.70;99.90
64143;DHT22;50437;51.970;5.904;2023-04-30T06:02:40;7.80;99.90
64143;DHT22;50437;51.970;5.904;2023-04-30T06:05:06;7.80;99.90
64143;DHT22;50437;51.970;5.904;2023-04-30T06:07:32;7.90;99.90
64143;DHT22;50437;51.970;5.904;2023-04-30T06:10:06;7.90;99.90
64143;DHT22;50437;51.970;5.904;2023-04-30T06:12:32;8.00;99.90
64143;DHT22;50437;51.970;5.904;2023-04-30T06:14:58;8.00;99.90
64143;DHT22;50437;51.970;5.904;2023-04-30T06:17:26;8.10;99.90
64143;DHT22;50437;51.970;5.904;2023-04-30T06:19:52;8.20;99.90
64143;DHT22;50437;51.970;5.904;2023-04-30T06:22:18;8.20;99.90
64143;DHT22;50437;51.970;5.904;2023-04-30T06:24:44;8.20;99.90
64143;DHT22;50437;51.970;5.904;2023-04-30T06:27:10;8.20;99.90
64143;DHT22;50437;51.970;5.904;2023-04-30T06:29:36;8.30;99.90
64143;DHT22;50437;51.970;5.904;2023-04-30T06:32:02;8.40;99.90
64143;DHT22;50437;51.970;5.904;2023-04-30T06:34:28;8.40;99.90
64143;DHT22;50437;51.970;5.904;2023-04-30T06:36:54;8.50;99.90
64143;DHT22;50437;51.970;5.904;2023-04-30T06:39:21;8.50;99.90
64143;DHT22;50437;51.970;5.904;2023-04-30T06:41:47;8.50;99.90
64143;DHT22;50437;51.970;5.904;2023-04-30T06:44:16;8.50;99.90
64143;DHT22;50437;51.970;5.904;2023-04-30T06:46:43;8.60;99.90
64143;DHT22;50437;51.970;5.904;2023-04-30T06:49:09;8.70;99.90
64143;DHT22;50437;51.970;5.904;2023-04-30T06:51:36;8.70;99.90
64143;DHT22;50437;51.970;5.904;2023-04-30T06:54:02;8.70;99.90
64143;DHT22;50437;51.970;5.904;2023-04-30T06:56:28;8.80;99.90
64143;DHT22;50437;51.970;5.904;2023-04-30T06:58:53;8.80;99.90
64143;DHT22;50437;51.970;5.904;2023-04-30T07:01:19;8.90;99.90
64143;DHT22;50437;51.970;5.904;2023-04-30T07:03:45;8.90;99.90
64143;DHT22;50437;51.970;5.904;2023-04-30T07:06:11;9.10;99.90
64143;DHT22;50437;51.970;5.904;2023-04-30T07:08:37;9.10;99.90
64143;DHT22;50437;51.970;5.904;2023-04-30T07:11:05;9.20;99.90
64143;DHT22;50437;51.970;5.904;2023-04-30T07:13:31;9.30;99.90
64143;DHT22;50437;51.970;5.904;2023-04-30T07:15:57;9.30;99.90
64143;DHT22;50437;51.970;5.904;2023-04-30T07:18:24;9.50;99.90
64143;DHT22;50437;51.970;5.904;2023-04-30T07:20:50;9.50;99.90
64143;DHT22;50437;51.970;5.904;2023-04-30T07:23:16;9.60;99.90
64143;DHT22;50437;51.970;5.904;2023-04-30T07:25:42;9.60;99.90
64143;DHT22;50437;51.970;5.904;2023-04-30T07:28:08;9.80;99.90
64143;DHT22;50437;51.970;5.904;2023-04-30T07:30:34;9.90;99.90
64143;DHT22;50437;51.970;5.904;2023-04-30T07:33:03;10.10;99.90
64143;DHT22;50437;51.970;5.904;2023-04-30T07:35:31;10.20;99.90
64143;DHT22;50437;51.970;5.904;2023-04-30T07:37:58;10.40;99.90
64143;DHT22;50437;51.970;5.904;2023-04-30T07:40:24;10.50;99.90
64143;DHT22;50437;51.970;5.904;2023-04-30T07:42:50;11.80;99.90
64143;DHT22;50437;51.970;5.904;2023-04-30T07:45:16;14.90;99.90
64143;DHT22;50437;51.970;5.904;2023-04-30T07:47:42;16.30;99.90
64143;DHT22;50437;51.970;5.904;2023-04-30T07:50:09;17.60;99.90
64143;DHT22;50437;51.970;5.904;2023-04-30T07:52:35;18.40;99.70
64143;DHT22;50437;51.970;5.904;2023-04-30T07:55:01;18.20;94.90
64143;DHT22;50437;51.970;5.904;2023-04-30T07:57:28;18.50;94.00
64143;DHT22;50437;51.970;5.904;2023-04-30T07:59:54;19.10;88.50
64143;DHT22;50437;51.970;5.904;2023-04-30T08:02:20;19.80;79.70
64143;DHT22;50437;51.970;5.904;2023-04-30T08:04:49;19.80;78.90
64143;DHT22;50437;51.970;5.904;2023-04-30T08:07:15;20.10;74.10
64143;DHT22;50437;51.970;5.904;2023-04-30T08:09:41;19.90;73.80
64143;DHT22;50437;51.970;5.904;2023-04-30T08:12:08;19.80;70.00
64143;DHT22;50437;51.970;5.904;2023-04-30T08:14:34;19.70;76.70
64143;DHT22;50437;51.970;5.904;2023-04-30T08:17:00;20.00;73.10
64143;DHT22;50437;51.970;5.904;2023-04-30T08:19:27;20.20;69.70
64143;DHT22;50437;51.970;5.904;2023-04-30T08:21:53;21.30;68.70
64143;DHT22;50437;51.970;5.904;2023-04-30T08:24:19;21.60;68.40
64143;DHT22;50437;51.970;5.904;2023-04-30T08:26:46;21.10;67.00
64143;DHT22;50437;51.970;5.904;2023-04-30T08:29:12;21.20;65.10
64143;DHT22;50437;51.970;5.904;2023-04-30T08:31:38;20.60;64.70
64143;DHT22;50437;51.970;5.904;2023-04-30T08:34:04;21.00;66.40
64143;DHT22;50437;51.970;5.904;2023-04-30T08:36:30;21.10;62.90
64143;DHT22;50437;51.970;5.904;2023-04-30T08:38:56;21.00;62.90
64143;DHT22;50437;51.970;5.904;2023-04-30T08:41:24;21.20;61.30
64143;DHT22;50437;51.970;5.904;2023-04-30T08:43:54;20.90;63.80
64143;DHT22;50437;51.970;5.904;2023-04-30T08:46:24;21.70;61.50
64143;DHT22;50437;51.970;5.904;2023-04-30T08:48:51;21.10;62.80
64143;DHT22;50437;51.970;5.904;2023-04-30T08:51:19;20.70;61.80
64143;DHT22;50437;51.970;5.904;2023-04-30T08:53:46;20.80;63.50
64143;DHT22;50437;51.970;5.904;2023-04-30T08:56:15;20.10;63.30
64143;DHT22;50437;51.970;5.904;2023-04-30T08:58:41;20.40;62.50
64143;DHT22;50437;51.970;5.904;2023-04-30T09:01:08;20.30;62.90
64143;DHT22;50437;51.970;5.904;2023-04-30T09:03:35;20.60;63.50
64143;DHT22;50437;51.970;5.904;2023-04-30T09:06:01;21.60;60.20
64143;DHT22;50437;51.970;5.904;2023-04-30T09:08:48;22.40;57.70
64143;DHT22;50437;51.970;5.904;2023-04-30T09:11:24;21.90;58.60
64143;DHT22;50437;51.970;5.904;2023-04-30T09:13:53;21.60;57.90
64143;DHT22;50437;51.970;5.904;2023-04-30T09:16:22;21.10;58.10
64143;DHT22;50437;51.970;5.904;2023-04-30T09:18:48;21.80;58.60
64143;DHT22;50437;51.970;5.904;2023-04-30T09:21:15;21.30;59.50
64143;DHT22;50437;51.970;5.904;2023-04-30T09:23:55;20.90;57.30
64143;DHT22;50437;51.970;5.904;2023-04-30T09:26:25;20.80;56.50
64143;DHT22;50437;51.970;5.904;2023-04-30T09:28:55;20.70;59.10
64143;DHT22;50437;51.970;5.904;2023-04-30T09:31:22;21.60;58.50
64143;DHT22;50437;51.970;5.904;2023-04-30T09:33:49;22.10;58.30
64143;DHT22;50437;51.970;5.904;2023-04-30T09:36:25;21.70;58.40
64143;DHT22;50437;51.970;5.904;2023-04-30T09:38:52;22.90;54.20
64143;DHT22;50437;51.970;5.904;2023-04-30T09:43:48;21.80;55.00
64143;DHT22;50437;51.970;5.904;2023-04-30T09:46:17;22.10;54.80
64143;DHT22;50437;51.970;5.904;2023-04-30T09:48:48;22.10;53.90
64143;DHT22;50437;51.970;5.904;2023-04-30T09:51:23;22.10;53.50
64143;DHT22;50437;51.970;5.904;2023-04-30T09:53:49;21.70;54.70
64143;DHT22;50437;51.970;5.904;2023-04-30T09:56:22;22.60;53.70
64143;DHT22;50437;51.970;5.904;2023-04-30T09:58:52;22.50;51.80
64143;DHT22;50437;51.970;5.904;2023-04-30T10:01:24;22.30;54.20
64143;DHT22;50437;51.970;5.904;2023-04-30T10:03:56;22.50;53.10
64143;DHT22;50437;51.970;5.904;2023-04-30T10:06:22;22.80;52.70
64143;DHT22;50437;51.970;5.904;2023-04-30T10:08:55;23.00;52.60
64143;DHT22;50437;51.970;5.904;2023-04-30T10:11:22;22.70;50.30
64143;DHT22;50437;51.970;5.904;2023-04-30T10:13:53;22.40;51.50
64143;DHT22;50437;51.970;5.904;2023-04-30T10:16:33;22.40;52.60
64143;DHT22;50437;51.970;5.904;2023-04-30T10:19:04;22.90;50.40
64143;DHT22;50437;51.970;5.904;2023-04-30T10:21:31;22.50;51.30
64143;DHT22;50437;51.970;5.904;2023-04-30T10:23:58;22.90;49.30
64143;DHT22;50437;51.970;5.904;2023-04-30T10:26:24;22.10;50.50
64143;DHT22;50437;51.970;5.904;2023-04-30T10:28:55;22.40;49.70
64143;DHT22;50437;51.970;5.904;2023-04-30T10:31:23;22.70;48.60
64143;DHT22;50437;51.970;5.904;2023-04-30T10:33:53;22.50;50.00
64143;DHT22;50437;51.970;5.904;2023-04-30T10:39:21;23.40;48.10
64143;DHT22;50437;51.970;5.904;2023-04-30T10:41:48;23.50;46.80
64143;DHT22;50437;51.970;5.904;2023-04-30T10:44:16;23.10;47.80
64143;DHT22;50437;51.970;5.904;2023-04-30T10:46:46;23.60;47.80
64143;DHT22;50437;51.970;5.904;2023-04-30T10:49:12;23.10;46.60
64143;DHT22;50437;51.970;5.904;2023-04-30T10:51:45;23.30;48.70
64143;DHT22;50437;51.970;5.904;2023-04-30T10:54:13;23.30;47.00
64143;DHT22;50437;51.970;5.904;2023-04-30T10:56:40;23.30;48.20
64143;DHT22;50437;51.970;5.904;2023-04-30T10:59:09;22.80;47.00
64143;DHT22;50437;51.970;5.904;2023-04-30T11:01:53;22.70;46.70
64143;DHT22;50437;51.970;5.904;2023-04-30T11:04:19;21.90;48.00
64143;DHT22;50437;51.970;5.904;2023-04-30T11:09:15;22.40;49.10
64143;DHT22;50437;51.970;5.904;2023-04-30T11:11:47;22.20;51.30
64143;DHT22;50437;51.970;5.904;2023-04-30T11:14:30;22.30;50.80
64143;DHT22;50437;51.970;5.904;2023-04-30T11:16:56;23.10;48.00
64143;DHT22;50437;51.970;5.904;2023-04-30T11:19:23;22.90;47.70
64143;DHT22;50437;51.970;5.904;2023-04-30T11:27:28;22.10;50.90
64143;DHT22;50437;51.970;5.904;2023-04-30T11:29:54;22.10;51.60
64143;DHT22;50437;51.970;5.904;2023-04-30T11:32:21;22.70;50.10
64143;DHT22;50437;51.970;5.904;2023-04-30T11:34:47;22.50;50.80
64143;DHT22;50437;51.970;5.904;2023-04-30T11:37:47;22.10;49.80
64143;DHT22;50437;51.970;5.904;2023-04-30T11:40:08;22.10;49.40
64143;DHT22;50437;51.970;5.904;2023-04-30T11:42:36;21.60;51.00
64143;DHT22;50437;51.970;5.904;2023-04-30T11:47:40;21.50;52.10
64143;DHT22;50437;51.970;5.904;2023-04-30T11:50:07;21.80;50.40
64143;DHT22;50437;51.970;5.904;2023-04-30T11:52:33;21.50;50.40
64143;DHT22;50437;51.970;5.904;2023-04-30T11:55:08;21.70;50.70
64143;DHT22;50437;51.970;5.904;2023-04-30T11:57:43;21.40;52.30
64143;DHT22;50437;51.970;5.904;2023-04-30T12:00:11;21.70;52.40
64143;DHT22;50437;51.970;5.904;2023-04-30T12:02:38;21.40;54.20
64143;DHT22;50437;51.970;5.904;2023-04-30T12:05:05;21.50;52.50
64143;DHT22;50437;51.970;5.904;2023-04-30T12:07:37;21.40;51.10
64143;DHT22;50437;51.970;5.904;2023-04-30T12:10:03;21.40;54.60
64143;DHT22;50437;51.970;5.904;2023-04-30T12:12:29;21.70;53.00
64143;DHT22;50437;51.970;5.904;2023-04-30T12:14:55;21.70;53.30
64143;DHT22;50437;51.970;5.904;2023-04-30T12:17:34;21.10;52.50
64143;DHT22;50437;51.970;5.904;2023-04-30T12:20:00;21.60;51.80
64143;DHT22;50437;51.970;5.904;2023-04-30T12:22:26;21.60;50.40
64143;DHT22;50437;51.970;5.904;2023-04-30T12:24:57;21.70;55.50
64143;DHT22;50437;51.970;5.904;2023-04-30T12:27:25;21.50;52.60
64143;DHT22;50437;51.970;5.904;2023-04-30T12:29:52;21.30;53.20
64143;DHT22;50437;51.970;5.904;2023-04-30T12:32:20;21.30;52.70
64143;DHT22;50437;51.970;5.904;2023-04-30T12:34:46;21.60;51.70
64143;DHT22;50437;51.970;5.904;2023-04-30T12:37:15;21.30;53.00
64143;DHT22;50437;51.970;5.904;2023-04-30T12:39:42;21.20;52.30
64143;DHT22;50437;51.970;5.904;2023-04-30T12:42:09;21.20;52.80
64143;DHT22;50437;51.970;5.904;2023-04-30T12:44:42;21.50;51.70
64143;DHT22;50437;51.970;5.904;2023-04-30T12:47:14;21.10;51.90
64143;DHT22;50437;51.970;5.904;2023-04-30T12:49:41;21.50;52.30
64143;DHT22;50437;51.970;5.904;2023-04-30T12:52:12;21.30;52.90
64143;DHT22;50437;51.970;5.904;2023-04-30T12:54:38;21.30;51.40
64143;DHT22;50437;51.970;5.904;2023-04-30T12:57:05;21.30;50.80
64143;DHT22;50437;51.970;5.904;2023-04-30T12:59:36;21.20;49.30
64143;DHT22;50437;51.970;5.904;2023-04-30T13:04:38;21.30;49.80
64143;DHT22;50437;51.970;5.904;2023-04-30T13:07:04;21.60;50.20
64143;DHT22;50437;51.970;5.904;2023-04-30T13:09:34;21.40;48.60
64143;DHT22;50437;51.970;5.904;2023-04-30T13:12:01;21.40;50.00
64143;DHT22;50437;51.970;5.904;2023-04-30T13:14:29;21.50;49.20
64143;DHT22;50437;51.970;5.904;2023-04-30T13:16:55;21.60;50.20
64143;DHT22;50437;51.970;5.904;2023-04-30T13:19:21;21.50;52.40
64143;DHT22;50437;51.970;5.904;2023-04-30T13:21:47;21.20;51.60
64143;DHT22;50437;51.970;5.904;2023-04-30T13:24:13;20.90;50.70
64143;DHT22;50437;51.970;5.904;2023-04-30T13:26:40;20.80;51.90
64143;DHT22;50437;51.970;5.904;2023-04-30T13:29:06;20.90;51.50
64143;DHT22;50437;51.970;5.904;2023-04-30T13:31:32;21.10;52.70
64143;DHT22;50437;51.970;5.904;2023-04-30T13:33:58;21.40;51.50
64143;DHT22;50437;51.970;5.904;2023-04-30T13:36:24;21.30;51.20
64143;DHT22;50437;51.970;5.904;2023-04-30T13:38:50;21.40;52.40
64143;DHT22;50437;51.970;5.904;2023-04-30T13:41:16;21.20;51.10
64143;DHT22;50437;51.970;5.904;2023-04-30T13:43:42;21.20;52.30
64143;DHT22;50437;51.970;5.904;2023-04-30T13:46:16;21.10;52.10
64143;DHT22;50437;51.970;5.904;2023-04-30T13:48:42;21.10;53.50
64143;DHT22;50437;51.970;5.904;2023-04-30T13:51:15;21.40;52.10
64143;DHT22;50437;51.970;5.904;2023-04-30T13:53:41;21.50;51.90
64143;DHT22;50437;51.970;5.904;2023-04-30T13:56:07;21.50;52.00
64143;DHT22;50437;51.970;5.904;2023-04-30T13:58:33;21.70;51.20
64143;DHT22;50437;51.970;5.904;2023-04-30T14:00:59;21.80;50.70
64143;DHT22;50437;51.970;5.904;2023-04-30T14:03:25;22.20;51.90
64143;DHT22;50437;51.970;5.904;2023-04-30T14:05:51;22.20;51.80
64143;DHT22;50437;51.970;5.904;2023-04-30T14:08:19;22.20;49.70
64143;DHT22;50437;51.970;5.904;2023-04-30T14:10:47;21.90;48.70
64143;DHT22;50437;51.970;5.904;2023-04-30T14:13:13;21.50;50.60
64143;DHT22;50437;51.970;5.904;2023-04-30T14:15:40;21.60;50.80
64143;DHT22;50437;51.970;5.904;2023-04-30T14:18:06;21.50;50.60
64143;DHT22;50437;51.970;5.904;2023-04-30T14:20:38;21.80;51.00
64143;DHT22;50437;51.970;5.904;2023-04-30T14:23:07;21.80;51.80
64143;DHT22;50437;51.970;5.904;2023-04-30T14:25:35;21.90;49.70
64143;DHT22;50437;51.970;5.904;2023-04-30T14:28:02;21.60;50.50
64143;DHT22;50437;51.970;5.904;2023-04-30T14:30:28;21.30;50.30
64143;DHT22;50437;51.970;5.904;2023-04-30T14:32:56;21.00;50.80
64143;DHT22;50437;51.970;5.904;2023-04-30T14:35:22;21.10;51.90
64143;DHT22;50437;51.970;5.904;2023-04-30T14:37:49;21.10;50.70
64143;DHT22;50437;51.970;5.904;2023-04-30T14:40:15;21.00;51.40
64143;DHT22;50437;51.970;5.904;2023-04-30T14:42:41;21.30;52.70
64143;DHT22;50437;51.970;5.904;2023-04-30T14:45:08;21.30;51.90
64143;DHT22;50437;51.970;5.904;2023-04-30T14:47:37;21.10;51.30
64143;DHT22;50437;51.970;5.904;2023-04-30T14:50:03;20.90;52.30
64143;DHT22;50437;51.970;5.904;2023-04-30T14:52:29;21.10;50.60
64143;DHT22;50437;51.970;5.904;2023-04-30T14:54:55;21.00;50.70
64143;DHT22;50437;51.970;5.904;2023-04-30T14:57:21;21.00;49.80
64143;DHT22;50437;51.970;5.904;2023-04-30T14:59:48;21.00;50.80
64143;DHT22;50437;51.970;5.904;2023-04-30T15:02:14;20.70;49.70
64143;DHT22;50437;51.970;5.904;2023-04-30T15:04:46;20.70;50.50
64143;DHT22;50437;51.970;5.904;2023-04-30T15:07:18;20.90;50.60
64143;DHT22;50437;51.970;5.904;2023-04-30T15:09:47;20.90;51.10
64143;DHT22;50437;51.970;5.904;2023-04-30T15:12:13;21.00;51.70
64143;DHT22;50437;51.970;5.904;2023-04-30T15:14:39;21.10;49.90
64143;DHT22;50437;51.970;5.904;2023-04-30T15:17:09;21.00;50.90
64143;DHT22;50437;51.970;5.904;2023-04-30T15:19:36;20.70;52.10
64143;DHT22;50437;51.970;5.904;2023-04-30T15:22:02;20.90;51.30
64143;DHT22;50437;51.970;5.904;2023-04-30T15:24:28;20.50;50.80
64143;DHT22;50437;51.970;5.904;2023-04-30T15:26:54;20.40;49.70
64143;DHT22;50437;51.970;5.904;2023-04-30T15:29:23;20.50;50.10
64143;DHT22;50437;51.970;5.904;2023-04-30T15:31:49;20.30;49.90
64143;DHT22;50437;51.970;5.904;2023-04-30T15:34:20;20.20;49.90
64143;DHT22;50437;51.970;5.904;2023-04-30T15:36:46;20.20;47.80
64143;DHT22;50437;51.970;5.904;2023-04-30T15:39:12;20.40;48.90
64143;DHT22;50437;51.970;5.904;2023-04-30T15:41:46;20.80;49.00
64143;DHT22;50437;51.970;5.904;2023-04-30T15:44:12;20.90;50.90
64143;DHT22;50437;51.970;5.904;2023-04-30T15:46:38;20.90;50.20
64143;DHT22;50437;51.970;5.904;2023-04-30T15:49:04;21.10;50.30
64143;DHT22;50437;51.970;5.904;2023-04-30T15:51:35;20.80;49.20
64143;DHT22;50437;51.970;5.904;2023-04-30T15:54:13;20.80;50.40
64143;DHT22;50437;51.970;5.904;2023-04-30T15:56:42;21.00;51.80
64143;DHT22;50437;51.970;5.904;2023-04-30T15:59:11;21.20;49.10
64143;DHT22;50437;51.970;5.904;2023-04-30T16:01:41;21.40;49.00
64143;DHT22;50437;51.970;5.904;2023-04-30T16:04:08;21.30;50.00
64143;DHT22;50437;51.970;5.904;2023-04-30T16:06:34;21.10;49.40
64143;DHT22;50437;51.970;5.904;2023-04-30T16:09:00;21.30;50.40